Time;durP1;ratioP1;P1;durP2;ratioP2;P2;SDS_P1;SDS_P2;PMS_P1;PMS_P2;Temp;Humidity;BMP_temperature;BMP_pressure;BME280_temperature;BME280_humidity;BME280_pressure;Samples;Min_cycle;Max_cycle;Signal;HPM_P1;HPM_P2
2023/04/24 00:01:26;;;;;;;8.73;5.20;;;;;;;16.07;35.54;98993.19;7738094;32;38405;-84
2023/04/24 00:05:42;;;;;;;8.27;4.65;;;;;;;15.96;35.79;98997.44;7739038;32;36907;-84
2023/04/24 00:09:59;;;;;;;7.40;4.57;;;;;;;15.81;36.08;98987.75;7739664;32;39588;-84
2023/04/24 00:14:16;;;;;;;10.10;4.47;;;;;;;15.67;36.08;98998.88;7738479;32;40856;-84
2023/04/24 00:18:32;;;;;;;8.05;4.72;;;;;;;15.79;36.32;98983.72;7739053;32;38635;-84
2023/04/24 00:22:49;;;;;;;6.72;4.30;;;;;;;15.53;36.95;98996.31;7738957;32;37009;-83
2023/04/24 00:27:05;;;;;;;8.85;4.65;;;;;;;15.65;36.86;99012.16;7738659;32;40135;-83
2023/04/24 00:31:21;;;;;;;7.30;4.55;;;;;;;15.66;36.24;99033.00;7738777;32;40066;-83
2023/04/24 00:35:38;;;;;;;14.38;6.15;;;;;;;15.55;41.18;99042.69;7738553;32;37856;-83
2023/04/24 00:39:55;;;;;;;9.05;4.93;;;;;;;15.38;46.09;99038.00;7738857;32;38324;-83
2023/04/24 00:44:11;;;;;;;10.73;5.60;;;;;;;15.43;48.88;99018.63;7741104;32;38965;-84
2023/04/24 00:48:27;;;;;;;9.95;5.82;;;;;;;15.24;47.43;99007.94;7764496;32;39949;-84
2023/04/24 00:52:44;;;;;;;15.43;6.97;;;;;;;15.20;46.91;99006.97;7764104;32;38681;-84
2023/04/24 00:57:01;;;;;;;15.30;5.72;;;;;;;14.97;51.17;98998.88;7744806;32;37068;-84
2023/04/24 01:01:21;;;;;;;10.95;6.45;;;;;;;14.33;52.97;98999.31;7738605;32;39334;-84
2023/04/24 01:05:37;;;;;;;12.90;6.68;;;;;;;14.11;55.26;98985.63;7746766;32;40855;-85
2023/04/24 01:09:53;;;;;;;11.38;6.50;;;;;;;14.06;54.67;98979.19;7763663;32;38704;-84
2023/04/24 01:14:11;;;;;;;10.98;6.37;;;;;;;14.11;54.02;98986.47;7763464;32;37269;-83
2023/04/24 01:18:28;;;;;;;12.45;7.07;;;;;;;13.66;55.40;98983.75;7738436;32;40001;-83
2023/04/24 01:22:44;;;;;;;12.95;7.07;;;;;;;13.55;54.47;98983.22;7738209;32;39961;-83
2023/04/24 01:27:01;;;;;;;13.68;7.28;;;;;;;13.73;53.50;98986.06;7757719;32;38538;-83
2023/04/24 01:31:17;;;;;;;14.25;7.45;;;;;;;13.82;53.75;98968.56;7765414;32;37765;-83
2023/04/24 01:35:35;;;;;;;10.65;6.87;;;;;;;14.05;53.30;98980.28;7763528;32;40119;-86
2023/04/24 01:39:52;;;;;;;11.25;6.93;;;;;;;13.91;53.72;98987.78;7765155;32;39958;-83
2023/04/24 01:44:08;;;;;;;11.45;6.85;;;;;;;13.96;54.18;98984.91;7761343;32;37814;-83
2023/04/24 01:48:25;;;;;;;14.10;6.47;;;;;;;14.05;54.45;98976.75;7738004;32;37046;-83
2023/04/24 01:52:41;;;;;;;11.40;6.87;;;;;;;14.39;50.88;98986.25;7736914;32;40191;-83
2023/04/24 01:56:58;;;;;;;11.45;6.70;;;;;;;14.09;49.94;98981.28;7755714;32;39765;-83
2023/04/24 02:01:21;;;;;;;12.95;7.70;;;;;;;14.28;51.09;98981.06;7763536;32;37897;-83
2023/04/24 02:05:37;;;;;;;12.37;7.90;;;;;;;14.06;53.76;98964.66;7753824;32;37031;-84
2023/04/24 02:09:53;;;;;;;13.48;7.65;;;;;;;14.25;53.86;98954.28;7737812;32;40132;-84
2023/04/24 02:14:09;;;;;;;11.15;7.75;;;;;;;13.93;54.75;98940.91;7740804;32;40792;-83
2023/04/24 02:18:26;;;;;;;12.10;8.02;;;;;;;13.60;56.88;98927.50;7764242;32;37801;-83
2023/04/24 02:22:42;;;;;;;13.18;8.30;;;;;;;13.42;57.70;98924.66;7764575;32;37098;-82
2023/04/24 02:27:00;;;;;;;16.27;8.55;;;;;;;13.25;58.44;98917.09;7743177;32;39946;-83
2023/04/24 02:31:16;;;;;;;15.45;9.02;;;;;;;12.98;59.25;98928.16;7737051;32;40724;-82
2023/04/24 02:35:32;;;;;;;14.48;8.73;;;;;;;12.92;59.37;98924.72;7743283;32;37975;-83
2023/04/24 02:39:48;;;;;;;13.40;8.52;;;;;;;13.09;59.10;98924.03;7737139;32;37130;-84
2023/04/24 02:44:05;;;;;;;13.62;8.95;;;;;;;13.48;58.50;98909.72;7739165;32;39378;-83
2023/04/24 02:48:21;;;;;;;15.70;9.48;;;;;;;13.27;58.15;98898.44;7762821;32;39906;-83
2023/04/24 02:52:38;;;;;;;15.13;8.55;;;;;;;13.16;58.78;98905.28;7763969;32;37984;-83
2023/04/24 02:56:54;;;;;;;15.57;9.15;;;;;;;13.11;58.45;98898.00;7743214;32;37853;-83
2023/04/24 03:01:11;;;;;;;15.30;8.40;;;;;;;13.12;58.90;98891.41;7736836;32;39795;-84
2023/04/24 03:05:27;;;;;;;13.48;8.48;;;;;;;13.20;57.06;98886.31;7746695;32;40006;-83
2023/04/24 03:09:43;;;;;;;12.77;7.62;;;;;;;13.24;56.83;98870.88;7763618;32;38486;-83
2023/04/24 03:14:00;;;;;;;13.15;8.40;;;;;;;13.15;57.23;98877.09;7759236;32;37041;-83
2023/04/24 03:18:16;;;;;;;11.93;7.87;;;;;;;13.33;56.83;98863.56;7736432;32;40530;-83
2023/04/24 03:22:33;;;;;;;16.62;8.95;;;;;;;13.24;56.81;98865.41;7736229;32;40643;-83
2023/04/24 03:26:49;;;;;;;12.98;8.25;;;;;;;13.17;57.71;98863.09;7757316;32;38664;-83
2023/04/24 03:31:06;;;;;;;13.52;8.18;;;;;;;13.30;58.18;98877.84;7765005;32;37882;-83
2023/04/24 03:35:22;;;;;;;12.85;8.23;;;;;;;13.48;56.62;98865.91;7753966;32;40037;-83
2023/04/24 03:39:39;;;;;;;12.93;8.45;;;;;;;13.20;57.64;98883.59;7739582;32;40638;-83
2023/04/24 03:43:56;;;;;;;12.35;8.20;;;;;;;13.12;57.58;98880.47;7742092;32;37937;-84
2023/04/24 03:48:12;;;;;;;13.57;8.48;;;;;;;13.42;57.13;98883.59;7766294;32;37130;-83
2023/04/24 03:52:28;;;;;;;13.40;8.27;;;;;;;13.12;57.76;98885.94;7766440;32;39416;-84
2023/04/24 03:56:45;;;;;;;14.13;8.15;;;;;;;13.29;56.57;98874.28;7744924;32;39568;-84
2023/04/24 04:01:02;;;;;;;15.82;8.30;;;;;;;13.26;56.09;98874.09;7739390;32;38649;-84
2023/04/24 04:05:19;;;;;;;12.40;8.20;;;;;;;13.25;56.19;98873.31;7749901;32;37156;-83
2023/04/24 04:09:35;;;;;;;14.95;7.93;;;;;;;13.24;57.03;98854.47;7764599;32;39525;-83
2023/04/24 04:13:52;;;;;;;13.05;8.15;;;;;;;13.09;57.09;98853.72;7761268;32;40019;-83
2023/04/24 04:18:08;;;;;;;13.95;8.02;;;;;;;13.19;56.30;98862.78;7739147;32;37749;-84
2023/04/24 04:22:24;;;;;;;11.15;7.68;;;;;;;13.36;56.35;98873.09;7737884;32;37236;-83
2023/04/24 04:26:41;;;;;;;13.43;7.40;;;;;;;13.39;55.76;98862.31;7761439;32;38984;-83
2023/04/24 04:30:57;;;;;;;16.25;8.55;;;;;;;13.34;55.63;98848.75;7764621;32;39919;-84
2023/04/24 04:35:14;;;;;;;13.15;7.20;;;;;;;13.47;54.65;98841.56;7752424;32;38747;-84
2023/04/24 04:39:30;;;;;;;10.60;6.60;;;;;;;13.74;53.55;98826.87;7738721;32;37866;-83
2023/04/24 04:43:47;;;;;;;11.88;6.78;;;;;;;13.55;52.99;98834.53;7742154;32;39419;-83
2023/04/24 04:48:03;;;;;;;11.27;7.10;;;;;;;13.63;52.28;98834.56;7751943;32;40001;-83
2023/04/24 04:52:20;;;;;;;13.77;7.50;;;;;;;13.64;52.41;98829.91;7765613;32;38683;-83
2023/04/24 04:56:36;;;;;;;12.35;7.25;;;;;;;13.71;51.88;98841.19;7760276;32;37970;-83
2023/04/24 05:00:53;;;;;;;16.25;7.18;;;;;;;14.01;51.83;98844.25;7765707;32;39238;-84
2023/04/24 05:05:09;;;;;;;10.63;7.10;;;;;;;13.57;52.73;98840.50;7755419;32;39956;-85
2023/04/24 05:09:27;;;;;;;13.80;7.93;;;;;;;13.59;52.67;98830.88;7738370;32;37844;-83
2023/04/24 05:13:43;;;;;;;10.75;7.07;;;;;;;13.86;52.44;98832.56;7738559;32;37073;-82
2023/04/24 05:17:59;;;;;;;13.85;8.18;;;;;;;13.70;52.62;98837.66;7756241;32;40154;-84
2023/04/24 05:22:18;;;;;;;11.95;7.10;;;;;;;13.63;53.29;98837.31;7738231;32;39929;-83
2023/04/24 05:26:35;;;;;;;11.38;7.78;;;;;;;14.02;51.98;98843.09;7747404;32;36897;-84
2023/04/24 05:30:51;;;;;;;13.10;7.32;;;;;;;13.97;52.09;98843.25;7749601;32;37922;-83
2023/04/24 05:35:08;;;;;;;13.40;7.30;;;;;;;13.79;52.29;98848.66;7756206;32;40216;-83
2023/04/24 05:39:24;;;;;;;13.13;6.93;;;;;;;14.14;51.74;98843.28;7736915;32;40822;-84
2023/04/24 05:43:41;;;;;;;14.32;7.45;;;;;;;14.11;50.80;98851.34;7736815;32;37815;-83
2023/04/24 05:47:57;;;;;;;15.95;8.30;;;;;;;14.38;51.73;98848.34;7753020;32;37838;-83
2023/04/24 05:52:13;;;;;;;16.20;7.40;;;;;;;14.49;51.23;98851.59;7764899;32;37967;-83
2023/04/24 05:56:30;;;;;;;11.60;7.18;;;;;;;14.73;50.81;98847.59;7748591;32;40747;-83
2023/04/24 06:00:47;;;;;;;18.00;7.82;;;;;;;14.77;51.30;98840.34;7738400;32;37664;-83
2023/04/24 06:05:04;;;;;;;12.02;7.20;;;;;;;14.65;52.27;98852.75;7754031;32;37106;-78
2023/04/24 06:09:21;;;;;;;13.52;7.62;;;;;;;14.78;53.90;98855.66;7738009;32;39925;-83
2023/04/24 06:13:38;;;;;;;11.93;8.02;;;;;;;14.62;53.59;98850.66;7737948;32;39991;-83
2023/04/24 06:17:54;;;;;;;12.37;7.97;;;;;;;14.72;52.01;98857.78;7737753;32;36822;-67
2023/04/24 06:22:10;;;;;;;11.65;7.25;;;;;;;14.73;51.93;98848.44;7737849;32;37775;-70
2023/04/24 06:26:27;;;;;;;12.45;8.25;;;;;;;14.97;55.36;98836.97;7752289;32;39897;-81
2023/04/24 06:30:43;;;;;;;12.75;7.85;;;;;;;15.20;51.15;98842.25;7746074;32;40832;-85
2023/04/24 06:34:59;;;;;;;16.10;8.00;;;;;;;15.13;51.55;98841.94;7737575;32;37968;-68
2023/04/24 06:39:16;;;;;;;12.20;8.20;;;;;;;15.07;54.30;98840.50;7740395;32;37297;-68
2023/04/24 06:43:33;;;;;;;13.85;7.85;;;;;;;15.23;52.52;98830.62;7763511;32;40058;-84
2023/04/24 06:47:49;;;;;;;13.65;7.95;;;;;;;15.42;50.93;98830.25;7764160;32;40782;-84
2023/04/24 06:52:06;;;;;;;10.88;7.93;;;;;;;15.67;50.96;98836.78;7760002;32;38115;-85
2023/04/24 06:56:23;;;;;;;13.18;8.00;;;;;;;15.71;50.70;98835.00;7742958;32;38312;-82
2023/04/24 07:00:39;;;;;;;15.00;8.02;;;;;;;15.32;50.96;98836.09;7758153;32;39329;-84
2023/04/24 07:04:56;;;;;;;20.42;8.25;;;;;;;15.59;52.15;98834.87;7763076;32;40039;-85
2023/04/24 07:09:18;;;;;;;12.40;7.28;;;;;;;15.92;50.25;98829.63;7767015;32;39137;-83
2023/04/24 07:13:35;;;;;;;16.40;7.97;;;;;;;16.12;50.35;98821.75;7767090;32;36800;-84
2023/04/24 07:17:51;;;;;;;14.87;8.30;;;;;;;16.50;50.72;98818.88;7767042;32;40051;-68
2023/04/24 07:22:08;;;;;;;14.73;8.68;;;;;;;16.61;50.25;98822.06;7767017;32;40241;-84
2023/04/24 07:26:25;;;;;;;11.38;7.22;;;;;;;16.88;48.86;98819.91;7759087;32;38669;-84
2023/04/24 07:30:41;;;;;;;14.55;7.37;;;;;;;17.34;48.54;98809.75;7739861;32;37176;-83
2023/04/24 07:34:58;;;;;;;13.05;7.47;;;;;;;17.36;49.31;98807.47;7760647;32;39290;-84
2023/04/24 07:39:14;;;;;;;16.17;7.47;;;;;;;17.54;48.62;98819.09;7751470;32;40861;-84
2023/04/24 07:43:30;;;;;;;13.00;7.40;;;;;;;17.36;47.74;98812.19;7752241;32;39063;-84
2023/04/24 07:47:47;;;;;;;11.68;7.37;;;;;;;17.63;46.82;98819.00;7766581;32;37013;-83
2023/04/24 07:52:03;;;;;;;11.57;7.32;;;;;;;17.42;46.69;98813.59;7738666;32;39420;-85
2023/04/24 07:56:20;;;;;;;16.15;7.45;;;;;;;17.59;45.68;98807.88;7742500;32;39945;-88
2023/04/24 08:00:36;;;;;;;11.15;7.28;;;;;;;17.99;47.14;98804.47;7740249;32;36961;-87
2023/04/24 08:04:56;;;;;;;12.02;7.80;;;;;;;17.87;46.64;98801.72;7743285;32;38380;-84
2023/04/24 08:09:15;;;;;;;13.70;7.53;;;;;;;18.28;45.81;98801.78;7739056;32;39169;-67
2023/04/24 08:13:31;;;;;;;16.05;6.87;;;;;;;18.32;46.87;98800.75;7739246;32;39961;-67
2023/04/24 08:17:48;;;;;;;13.30;7.43;;;;;;;18.44;47.01;98807.38;7739000;32;37998;-86
2023/04/24 08:22:04;;;;;;;13.15;7.15;;;;;;;18.64;46.47;98809.16;7739136;32;37140;-85
2023/04/24 08:26:20;;;;;;;14.48;7.37;;;;;;;18.80;44.04;98808.44;7739238;32;39474;-86
2023/04/24 08:30:38;;;;;;;14.73;7.50;;;;;;;18.36;45.88;98812.69;7739199;32;40826;-85
2023/04/24 08:34:56;;;;;;;13.40;8.00;;;;;;;18.36;44.98;98807.16;7739077;32;37882;-85
2023/04/24 08:39:12;;;;;;;11.40;7.57;;;;;;;18.76;45.36;98809.16;7739194;32;37838;-83
2023/04/24 08:43:29;;;;;;;11.98;7.03;;;;;;;18.59;46.66;98809.41;7737554;32;39955;-85
2023/04/24 08:47:45;;;;;;;13.80;8.02;;;;;;;19.56;45.08;98795.53;7738713;32;40044;-85
2023/04/24 08:52:02;;;;;;;11.30;6.95;;;;;;;19.22;45.24;98797.00;7737377;32;37821;-85
2023/04/24 08:56:19;;;;;;;11.40;7.22;;;;;;;19.97;45.33;98792.59;7737610;32;36808;-87
2023/04/24 09:00:35;;;;;;;15.82;7.80;;;;;;;20.25;44.17;98793.25;7739157;32;39617;-85
2023/04/24 09:04:52;;;;;;;11.98;7.43;;;;;;;20.15;43.30;98793.81;7750975;32;39854;-85
2023/04/24 09:09:11;;;;;;;12.23;7.35;;;;;;;20.13;43.53;98782.31;7763121;32;38537;-84
2023/04/24 09:13:28;;;;;;;13.18;6.87;;;;;;;20.49;44.03;98779.50;7756591;32;37423;-85
2023/04/24 09:17:44;;;;;;;13.13;6.65;;;;;;;20.69;42.79;98772.06;7744943;32;40131;-81
2023/04/24 09:22:04;;;;;;;11.25;6.97;;;;;;;20.53;44.08;98775.66;7751860;32;40640;-81
2023/04/24 09:26:22;;;;;;;11.55;6.65;;;;;;;20.30;43.14;98778.34;7758918;32;38704;-82
2023/04/24 09:30:39;;;;;;;13.18;6.45;;;;;;;21.08;44.02;98783.13;7764055;32;36809;-84
2023/04/24 09:35:14;;;;;;;13.57;6.60;;;;;;;21.30;41.73;98778.75;7767094;32;39840;-85
2023/04/24 09:39:30;;;;;;;11.25;6.50;;;;;;;21.64;40.51;98770.66;7750772;32;39776;-85
2023/04/24 09:43:47;;;;;;;11.32;6.75;;;;;;;21.43;40.72;98760.00;7767080;32;37545;-86
2023/04/24 09:48:06;;;;;;;11.85;5.93;;;;;;;21.15;41.26;98758.31;7766874;32;37042;-86
2023/04/24 09:52:22;;;;;;;11.63;6.28;;;;;;;21.17;42.19;98750.44;7750828;32;39301;-83
2023/04/24 09:56:41;;;;;;;11.55;6.35;;;;;;;21.10;42.41;98750.31;7764494;32;40042;-84
2023/04/24 10:00:58;;;;;;;9.90;5.68;;;;;;;21.21;41.10;98748.50;7763365;32;37821;-83
2023/04/24 10:05:15;;;;;;;10.35;5.95;;;;;;;21.01;42.13;98743.03;7764947;32;37201;-84
2023/04/24 10:09:31;;;;;;;9.02;5.62;;;;;;;20.98;41.11;98743.75;7764740;32;39488;-83
2023/04/24 10:13:48;;;;;;;8.32;4.82;;;;;;;20.75;39.83;98749.25;7765059;32;40288;-86
2023/04/24 10:18:08;;;;;;;8.73;4.62;;;;;;;20.71;41.39;98748.38;7767231;32;38922;-85
2023/04/24 10:22:26;;;;;;;8.60;5.28;;;;;;;20.74;40.59;98744.88;7764579;32;37937;-83
2023/04/24 10:26:48;;;;;;;10.43;5.22;;;;;;;20.82;39.44;98746.62;7758283;32;40231;-82
2023/04/24 10:31:10;;;;;;;8.27;5.15;;;;;;;19.83;40.65;98744.09;7746830;32;40452;-82
2023/04/24 10:35:30;;;;;;;9.68;5.95;;;;;;;19.57;41.11;98747.38;7741076;32;37975;-84
2023/04/24 10:39:50;;;;;;;12.68;5.97;;;;;;;19.40;42.52;98748.53;7738647;32;38222;-81
2023/04/24 10:44:13;;;;;;;10.27;5.28;;;;;;;19.88;41.60;98748.53;7766366;32;39047;-84
2023/04/24 10:48:29;;;;;;;10.95;6.37;;;;;;;19.78;41.10;98741.59;7756902;32;39918;-82
2023/04/24 10:52:48;;;;;;;10.82;6.45;;;;;;;19.83;40.95;98746.84;7762804;32;38440;-81
2023/04/24 10:57:30;;;;;;;13.57;6.40;;;;;;;19.61;41.51;98751.03;7762473;32;37825;-82
2023/04/24 11:01:55;;;;;;;10.20;5.82;;;;;;;19.43;42.56;98753.34;7757780;32;38967;-83
2023/04/24 11:06:14;;;;;;;12.07;6.12;;;;;;;19.63;42.66;98742.38;7743436;32;40763;-83
2023/04/24 11:10:30;;;;;;;10.30;5.57;;;;;;;19.66;41.39;98744.41;7747592;32;37671;-84
2023/04/24 11:14:57;;;;;;;9.93;5.95;;;;;;;19.35;42.40;98745.22;7763664;32;36853;-83
2023/04/24 11:19:16;;;;;;;9.70;5.62;;;;;;;19.53;41.53;98746.50;7756971;32;39307;-82
2023/04/24 11:23:37;;;;;;;9.88;6.32;;;;;;;18.97;42.73;98747.41;7746452;32;39958;-83
2023/04/24 11:28:05;;;;;;;11.75;6.00;;;;;;;18.78;44.11;98750.78;7763320;32;38646;-83
2023/04/24 11:32:29;;;;;;;14.48;6.35;;;;;;;17.98;46.56;98749.66;7761951;32;37137;-86
2023/04/24 11:36:49;;;;;;;9.25;6.32;;;;;;;18.08;46.12;98760.22;7766405;32;40267;-83
2023/04/24 11:41:06;;;;;;;11.55;6.18;;;;;;;18.60;45.29;98742.03;7772696;32;39902;-80
2023/04/24 11:45:25;;;;;;;10.77;6.70;;;;;;;18.65;46.17;98754.78;7758746;32;37575;-84
2023/04/24 11:49:42;;;;;;;12.02;6.28;;;;;;;18.62;46.24;98752.72;7758388;32;37973;-82
2023/04/24 11:53:58;;;;;;;10.38;6.12;;;;;;;18.67;45.73;98750.50;7759980;32;39325;-83
2023/04/24 11:58:22;;;;;;;10.95;6.25;;;;;;;18.73;46.18;98753.81;7752606;32;40027;-85
2023/04/24 12:02:38;;;;;;;11.75;5.80;;;;;;;19.18;45.65;98735.31;7739534;32;38738;-83
2023/04/24 12:07:08;;;;;;;11.27;6.00;;;;;;;19.38;43.99;98731.50;7739389;32;37821;-83
2023/04/24 12:11:25;;;;;;;11.38;6.15;;;;;;;19.46;44.15;98724.19;7738339;32;40182;-84
2023/04/24 12:15:42;;;;;;;15.93;6.47;;;;;;;19.31;44.69;98723.81;7746776;32;40927;-84
2023/04/24 12:20:03;;;;;;;11.52;5.75;;;;;;;19.34;44.15;98722.31;7763000;32;37857;-83
2023/04/24 12:24:19;;;;;;;9.90;6.28;;;;;;;19.50;44.09;98702.97;7766275;32;37179;-84
2023/04/24 12:28:38;;;;;;;10.02;6.12;;;;;;;19.49;43.87;98702.19;7766159;32;39105;-84
2023/04/24 12:32:57;;;;;;;10.00;5.95;;;;;;;19.07;44.46;98702.69;7752185;32;40543;-83
2023/04/24 12:37:13;;;;;;;10.55;5.72;;;;;;;19.24;44.30;98689.69;7738957;32;36792;-83
2023/04/24 12:41:31;;;;;;;7.78;4.90;;;;;;;18.90;44.46;98697.50;7742675;32;37224;-85
2023/04/24 12:45:48;;;;;;;7.22;4.40;;;;;;;18.98;44.64;98693.78;7765953;32;39417;-85
2023/04/24 12:50:05;;;;;;;9.25;4.57;;;;;;;18.90;43.83;98701.09;7757035;32;40025;-86
2023/04/24 12:54:22;;;;;;;7.93;4.30;;;;;;;18.99;43.87;98689.87;7738580;32;38765;-84
2023/04/24 12:58:41;;;;;;;9.10;3.90;;;;;;;18.57;44.50;98693.88;7757826;32;37683;-83
2023/04/24 13:02:57;;;;;;;7.55;3.95;;;;;;;18.02;44.44;98695.41;7765815;32;39547;-85
2023/04/24 13:07:15;;;;;;;8.73;4.75;;;;;;;17.61;49.68;98705.56;7765566;32;39962;-84
2023/04/24 13:11:32;;;;;;;8.75;5.32;;;;;;;17.58;52.06;98704.28;7762112;32;38899;-88
2023/04/24 13:15:48;;;;;;;11.07;6.07;;;;;;;17.55;53.67;98712.44;7751539;32;37351;-85
2023/04/24 13:20:05;;;;;;;11.40;6.30;;;;;;;17.10;56.30;98714.13;7737067;32;40150;-83
2023/04/24 13:24:25;;;;;;;12.02;5.55;;;;;;;16.86;58.08;98706.59;7739716;32;40601;-87
2023/04/24 13:28:42;;;;;;;12.10;5.90;;;;;;;17.06;57.66;98710.44;7736384;32;38626;-87
2023/04/24 13:32:58;;;;;;;10.60;5.87;;;;;;;16.61;59.31;98705.69;7736206;32;37060;-71
2023/04/24 13:37:16;;;;;;;9.38;5.90;;;;;;;17.16;59.29;98700.91;7737959;32;38381;-72
2023/04/24 13:41:34;;;;;;;8.35;5.37;;;;;;;17.26;58.28;98697.72;7738043;32;39619;-69
2023/04/24 13:45:50;;;;;;;8.45;5.30;;;;;;;17.35;58.27;98703.13;7736121;32;38714;-71
2023/04/24 13:50:09;;;;;;;8.25;5.43;;;;;;;17.28;58.36;98698.19;7755460;32;37091;-86
2023/04/24 13:54:26;;;;;;;12.65;5.45;;;;;;;17.25;58.92;98696.13;7764290;32;38385;-89
2023/04/24 13:58:44;;;;;;;9.48;5.43;;;;;;;16.90;60.45;98702.03;7764747;32;38979;-87
2023/04/24 14:03:00;;;;;;;8.05;5.30;;;;;;;17.12;59.19;98706.31;7764466;32;37529;-87
2023/04/24 14:07:17;;;;;;;9.82;5.57;;;;;;;16.94;59.61;98704.91;7764789;32;37142;-87
2023/04/24 14:11:36;;;;;;;11.60;6.32;;;;;;;16.97;59.13;98705.03;7764725;32;39554;-88
2023/04/24 14:15:52;;;;;;;11.27;6.20;;;;;;;16.91;59.40;98708.34;7763651;32;40807;-88
2023/04/24 14:20:09;;;;;;;9.52;6.35;;;;;;;17.04;59.15;98707.22;7764527;32;37667;-88
2023/04/24 14:24:26;;;;;;;11.45;5.85;;;;;;;17.06;59.26;98700.22;7764007;32;36995;-88
2023/04/24 14:28:44;;;;;;;9.02;5.43;;;;;;;17.18;58.66;98702.19;7764407;32;38678;-87
2023/04/24 14:33:01;;;;;;;8.18;4.95;;;;;;;17.13;58.74;98702.44;7764108;32;40456;-87
2023/04/24 14:37:19;;;;;;;9.85;5.55;;;;;;;17.26;59.19;98698.53;7763979;32;38198;-88
2023/04/24 14:41:37;;;;;;;10.40;5.10;;;;;;;17.26;59.57;98706.81;7763882;32;37019;-87
2023/04/24 14:45:53;;;;;;;9.93;5.50;;;;;;;17.31;58.77;98694.75;7763968;32;40083;-87
2023/04/24 14:50:10;;;;;;;9.77;5.30;;;;;;;17.31;58.59;98702.22;7763879;32;40009;-87
2023/04/24 14:54:27;;;;;;;10.23;5.80;;;;;;;17.31;58.68;98702.22;7759201;32;37817;-86
2023/04/24 14:58:43;;;;;;;7.80;5.25;;;;;;;17.34;58.06;98704.28;7763878;32;37306;-88
2023/04/24 15:03:01;;;;;;;7.07;4.90;;;;;;;17.25;58.26;98702.44;7762521;32;39301;-88
2023/04/24 15:07:18;;;;;;;11.20;5.22;;;;;;;17.20;58.32;98713.69;7763259;32;39030;-89
2023/04/24 15:11:35;;;;;;;9.35;5.47;;;;;;;17.30;58.27;98706.09;7762932;32;37559;-87
2023/04/24 15:15:52;;;;;;;8.45;5.28;;;;;;;17.32;58.51;98698.31;7762364;32;37090;-88
2023/04/24 15:20:09;;;;;;;8.98;5.43;;;;;;;17.15;59.50;98705.63;7762307;32;40047;-87
2023/04/24 15:24:25;;;;;;;8.55;5.30;;;;;;;16.99;59.99;98701.91;7762968;32;39950;-86
2023/04/24 15:28:43;;;;;;;11.55;5.80;;;;;;;17.04;59.91;98699.78;7754761;32;38106;-88
2023/04/24 15:33:01;;;;;;;8.75;6.28;;;;;;;17.11;59.44;98704.72;7738329;32;37865;-85
2023/04/24 15:37:20;;;;;;;8.50;5.10;;;;;;;17.14;59.47;98709.53;7739419;32;39357;-88
2023/04/24 15:41:36;;;;;;;9.18;4.95;;;;;;;16.59;59.85;98714.31;7738648;32;40704;-87
2023/04/24 15:45:55;;;;;;;6.70;3.90;;;;;;;15.94;61.07;98720.13;7739201;32;38351;-86
2023/04/24 15:50:15;;;;;;;8.18;4.35;;;;;;;15.77;62.29;98718.28;7738295;32;36993;-88
2023/04/24 15:54:32;;;;;;;8.68;5.37;;;;;;;15.85;62.78;98721.31;7739499;32;40112;-88
2023/04/24 15:58:48;;;;;;;9.55;4.78;;;;;;;15.45;64.55;98730.72;7750135;32;39881;-86
2023/04/24 16:03:05;;;;;;;8.15;4.97;;;;;;;15.61;64.42;98725.47;7750392;32;37616;-86
2023/04/24 16:07:25;;;;;;;11.30;5.93;;;;;;;15.63;64.36;98727.91;7752327;32;36645;-88
2023/04/24 16:11:44;;;;;;;14.15;6.03;;;;;;;15.36;65.28;98722.50;7765903;32;40029;-87
2023/04/24 16:16:02;;;;;;;16.10;6.25;;;;;;;15.66;64.26;98727.22;7766394;32;39001;-88
2023/04/24 16:20:19;;;;;;;7.65;4.45;;;;;;;15.64;64.26;98724.00;7765590;32;37567;-87
2023/04/24 16:24:37;;;;;;;5.47;3.40;;;;;;;15.47;64.68;98717.47;7765975;32;37012;-88
2023/04/24 16:28:54;;;;;;;6.57;3.65;;;;;;;15.56;64.16;98725.69;7765182;32;39389;-88
2023/04/24 16:33:13;;;;;;;6.90;3.60;;;;;;;15.74;64.04;98716.19;7765563;32;39577;-87
2023/04/24 16:37:30;;;;;;;6.65;3.35;;;;;;;15.63;64.06;98722.41;7765408;32;38052;-86
2023/04/24 16:41:49;;;;;;;4.82;3.25;;;;;;;15.29;65.12;98726.91;7766045;32;37660;-87
2023/04/24 16:46:07;;;;;;;8.07;3.50;;;;;;;15.38;65.30;98709.28;7766685;32;38297;-88
2023/04/24 16:50:24;;;;;;;6.97;4.03;;;;;;;15.56;64.54;98715.47;7765600;32;39966;-88
2023/04/24 16:54:42;;;;;;;6.95;3.92;;;;;;;15.53;65.10;98720.84;7765077;32;38166;-87
2023/04/24 16:59:01;;;;;;;5.30;3.47;;;;;;;15.61;64.66;98711.75;7765311;32;37911;-87
2023/04/24 17:03:18;;;;;;;4.20;3.00;;;;;;;15.12;66.94;98716.78;7763858;32;39266;-89
2023/04/24 17:07:35;;;;;;;5.53;3.40;;;;;;;14.90;66.78;98715.09;7765368;32;38414;-88
2023/04/24 17:11:52;;;;;;;7.30;3.60;;;;;;;14.80;67.60;98716.25;7757939;32;38147;-87
2023/04/24 17:16:09;;;;;;;4.68;3.08;;;;;;;15.00;67.16;98717.47;7742724;32;37681;-88
2023/04/24 17:20:26;;;;;;;5.60;3.12;;;;;;;14.95;67.07;98723.97;7763468;32;40053;-87
2023/04/24 17:24:45;;;;;;;6.25;3.08;;;;;;;14.87;67.51;98727.53;7737823;32;39951;-86
2023/04/24 17:29:02;;;;;;;10.90;3.58;;;;;;;14.69;67.75;98731.44;7738066;32;37931;-88
2023/04/24 17:33:19;;;;;;;7.85;3.12;;;;;;;14.54;67.20;98729.94;7736394;32;38280;-87
2023/04/24 17:37:35;;;;;;;6.53;3.17;;;;;;;14.84;66.26;98733.66;7751419;32;40149;-87
2023/04/24 17:41:52;;;;;;;8.85;3.80;;;;;;;14.59;66.86;98736.13;7765532;32;40806;-89
2023/04/24 17:46:08;;;;;;;12.63;6.05;;;;;;;14.35;68.07;98744.00;7765432;32;37905;-89
2023/04/24 17:50:25;;;;;;;14.70;6.75;;;;;;;14.52;66.87;98741.28;7764485;32;36860;-90
2023/04/24 17:54:41;;;;;;;6.43;3.90;;;;;;;14.69;66.06;98745.13;7765090;32;39402;-88
2023/04/24 17:58:58;;;;;;;5.43;3.78;;;;;;;14.76;65.30;98748.19;7765288;32;40002;-90
2023/04/24 18:03:15;;;;;;;7.18;4.03;;;;;;;14.40;66.26;98754.78;7753293;32;37588;-90
2023/04/24 18:07:32;;;;;;;6.78;4.45;;;;;;;14.76;64.70;98748.19;7752361;32;37138;-89
2023/04/24 18:11:49;;;;;;;7.53;4.53;;;;;;;14.84;64.25;98761.91;7744012;32;39759;-90
2023/04/24 18:16:06;;;;;;;8.38;5.00;;;;;;;14.33;65.56;98762.69;7743626;32;39988;-90
2023/04/24 18:20:22;;;;;;;7.43;4.75;;;;;;;14.43;65.12;98774.16;7744568;32;39348;-89
2023/04/24 18:24:41;;;;;;;8.27;5.10;;;;;;;14.62;64.35;98770.31;7748989;32;37371;-90
2023/04/24 18:28:57;;;;;;;7.37;4.82;;;;;;;14.40;65.10;98773.97;7736495;32;39513;-90
2023/04/24 18:33:13;;;;;;;9.43;4.62;;;;;;;14.56;64.80;98771.59;7737631;32;40835;-89
2023/04/24 18:37:32;;;;;;;11.10;6.47;;;;;;;14.77;64.35;98783.53;7737597;32;37600;-91
2023/04/24 18:41:48;;;;;;;6.70;4.43;;;;;;;14.41;65.37;98800.28;7737605;32;37144;-90
2023/04/24 18:46:05;;;;;;;6.55;3.30;;;;;;;14.37;65.05;98800.12;7736781;32;39520;-90
2023/04/24 18:50:22;;;;;;;6.12;3.72;;;;;;;14.15;65.39;98805.75;7747600;32;39032;-90
2023/04/24 18:54:40;;;;;;;6.90;3.90;;;;;;;13.53;67.55;98808.25;7726862;32;37953;-90
2023/04/24 18:58:59;;;;;;;6.62;3.17;;;;;;;13.89;66.68;98815.50;7738992;32;36470;-90
2023/04/24 19:03:15;;;;;;;5.93;2.92;;;;;;;13.93;66.20;98818.41;7756642;32;39233;-88
2023/04/24 19:07:34;;;;;;;5.97;3.70;;;;;;;13.84;66.13;98817.59;7750761;32;40024;-86
2023/04/24 19:11:53;;;;;;;6.10;3.70;;;;;;;13.99;65.43;98816.34;7741548;32;36928;-86
2023/04/24 19:16:09;;;;;;;7.03;3.97;;;;;;;14.22;64.84;98817.03;7755738;32;37018;-87
2023/04/24 19:20:27;;;;;;;6.78;3.47;;;;;;;14.10;66.04;98825.88;7736970;32;38322;-89
2023/04/24 19:24:45;;;;;;;6.85;3.60;;;;;;;14.25;65.07;98822.69;7738712;32;39572;-87
2023/04/24 19:29:01;;;;;;;7.53;3.65;;;;;;;14.31;64.86;98814.31;7743432;32;37970;-89
2023/04/24 19:33:18;;;;;;;5.10;3.20;;;;;;;14.44;64.24;98814.16;7740174;32;36999;-89
2023/04/24 19:37:34;;;;;;;5.95;3.60;;;;;;;14.34;63.66;98825.44;7739481;32;40057;-86
2023/04/24 19:41:50;;;;;;;5.97;3.67;;;;;;;14.44;63.53;98819.66;7757415;32;40030;-86
2023/04/24 19:46:07;;;;;;;5.90;2.80;;;;;;;14.50;63.66;98817.53;7736105;32;37552;-87
2023/04/24 19:50:23;;;;;;;6.72;3.00;;;;;;;14.62;63.85;98812.25;7744250;32;37108;-89
2023/04/24 19:54:40;;;;;;;7.20;3.30;;;;;;;14.65;63.05;98814.34;7743590;32;39547;-87
2023/04/24 19:58:56;;;;;;;5.45;3.22;;;;;;;14.73;62.27;98817.41;7748785;32;39793;-88
2023/04/24 20:03:13;;;;;;;6.03;2.97;;;;;;;14.59;62.61;98810.19;7742500;32;38846;-88